Time;durP1;ratioP1;P1;durP2;ratioP2;P2;SDS_P1;SDS_P2;PMS_P1;PMS_P2;Temp;Humidity;BMP_temperature;BMP_pressure;BME280_temperature;BME280_humidity;BME280_pressure;Samples;Min_cycle;Max_cycle;Signal;HPM_P1;HPM_P2
2020/12/29 00:00:35;;;;;;;1.30;0.13;;;;;;;4.74;100.00;97625.47;4997036;28;20181;-80
2020/12/29 00:03:01;;;;;;;2.43;0.50;;;;;;;4.80;100.00;97635.31;4994683;28;20189;-79
2020/12/29 00:05:27;;;;;;;1.70;0.50;;;;;;;4.80;100.00;97627.31;4995943;28;20189;-79
2020/12/29 00:07:55;;;;;;;1.90;0.20;;;;;;;4.84;100.00;97622.72;5039299;28;20540;-79
2020/12/29 00:10:22;;;;;;;1.20;0.10;;;;;;;4.70;100.00;97630.06;5075030;28;20229;-79
2020/12/29 00:12:48;;;;;;;1.50;0.40;;;;;;;4.71;100.00;97629.69;4993844;28;20449;-79
2020/12/29 00:15:14;;;;;;;1.50;0.20;;;;;;;4.65;100.00;97623.25;5017902;28;20447;-79
2020/12/29 00:17:39;;;;;;;1.30;0.10;;;;;;;4.57;100.00;97632.41;5079195;28;20464;-78
2020/12/29 00:20:05;;;;;;;1.60;0.30;;;;;;;4.62;100.00;97624.03;5044608;28;20170;-79
2020/12/29 00:22:32;;;;;;;1.40;0.30;;;;;;;4.61;100.00;97630.50;4988270;28;20276;-78
2020/12/29 00:24:57;;;;;;;2.43;0.30;;;;;;;4.46;100.00;97621.06;5072421;28;20428;-78
2020/12/29 00:27:23;;;;;;;1.30;0.10;;;;;;;4.44;100.00;97612.69;5061419;28;20438;-78
2020/12/29 00:29:48;;;;;;;2.50;0.30;;;;;;;4.46;100.00;97615.75;4988452;28;20209;-78
2020/12/29 00:32:14;;;;;;;1.43;0.20;;;;;;;4.38;100.00;97611.59;4989251;28;20183;-79
2020/12/29 00:34:39;;;;;;;1.30;0.10;;;;;;;4.43;100.00;97611.19;4995636;28;20192;-79
2020/12/29 00:37:05;;;;;;;1.77;0.30;;;;;;;4.40;100.00;97614.63;4992491;28;20192;-80
2020/12/29 00:39:30;;;;;;;1.70;0.20;;;;;;;4.35;100.00;97601.72;5064519;28;20294;-79
2020/12/29 00:41:56;;;;;;;1.30;0.10;;;;;;;4.36;100.00;97603.22;5063509;28;20228;-78
2020/12/29 00:44:24;;;;;;;1.20;0.10;;;;;;;4.28;100.00;97599.09;5058465;28;20196;-79
2020/12/29 00:46:51;;;;;;;1.93;0.20;;;;;;;4.40;100.00;97603.97;4982647;28;20448;-79
2020/12/29 00:49:16;;;;;;;1.37;0.20;;;;;;;4.42;100.00;97601.69;5053762;28;21064;-79
2020/12/29 00:51:42;;;;;;;1.60;0.33;;;;;;;4.34;100.00;97595.63;5029683;28;20455;-78
2020/12/29 00:54:08;;;;;;;1.50;0.30;;;;;;;4.31;100.00;97595.66;5030836;28;20226;-79
2020/12/29 00:56:42;;;;;;;1.33;0.20;;;;;;;4.28;100.00;97591.09;5076651;28;20575;-78
2020/12/29 00:59:08;;;;;;;1.50;0.30;;;;;;;4.31;100.00;97593.75;5067129;28;20465;-79
2020/12/29 01:01:35;;;;;;;1.40;0.17;;;;;;;4.34;100.00;97598.31;4993138;28;20810;-78
2020/12/29 01:04:39;;;;;;;1.20;0.10;;;;;;;4.24;100.00;97590.38;4932334;28;20657;-78
2020/12/29 01:07:05;;;;;;;1.50;0.20;;;;;;;4.30;100.00;97594.13;4920953;28;20439;-78
2020/12/29 01:09:32;;;;;;;1.30;0.20;;;;;;;4.32;100.00;97597.16;4961713;28;21289;-78
2020/12/29 01:11:58;;;;;;;1.20;0.10;;;;;;;4.19;100.00;97593.44;5065291;28;22149;-79
2020/12/29 01:14:26;;;;;;;2.20;0.23;;;;;;;4.25;100.00;97591.88;4997915;28;20425;-77
2020/12/29 01:16:58;;;;;;;1.50;0.27;;;;;;;4.27;100.00;97593.03;5067501;28;20444;-79
2020/12/29 01:19:23;;;;;;;1.50;0.30;;;;;;;4.34;100.00;97589.53;5066209;28;20475;-79
2020/12/29 01:21:52;;;;;;;1.20;0.10;;;;;;;4.19;100.00;97598.75;5056996;28;20225;-78
2020/12/29 01:24:18;;;;;;;1.77;0.17;;;;;;;4.18;100.00;97591.94;4997038;28;20195;-79
2020/12/29 01:26:44;;;;;;;1.20;0.10;;;;;;;4.32;100.00;97594.50;4992642;28;21738;-79
2020/12/29 01:29:09;;;;;;;2.13;0.20;;;;;;;4.29;100.00;97596.06;4994466;28;20307;-79
2020/12/29 01:31:35;;;;;;;1.77;0.20;;;;;;;4.31;100.00;97601.00;4997282;28;20192;-79
2020/12/29 01:34:01;;;;;;;1.30;0.20;;;;;;;4.33;100.00;97601.34;5066587;28;20265;-78
2020/12/29 01:36:27;;;;;;;1.23;0.13;;;;;;;4.27;100.00;97593.03;5065954;28;20192;-78
2020/12/29 01:38:54;;;;;;;1.20;0.10;;;;;;;4.19;100.00;97596.09;5036365;28;20266;-78
2020/12/29 01:41:21;;;;;;;1.20;0.10;;;;;;;4.24;100.00;97599.09;5062302;28;20505;-79
2020/12/29 01:43:47;;;;;;;1.20;0.10;;;;;;;4.27;100.00;97594.91;5079109;28;20446;-78
2020/12/29 01:46:13;;;;;;;1.43;0.30;;;;;;;4.20;100.00;97594.97;5055548;28;20435;-79
2020/12/29 01:48:39;;;;;;;1.60;0.20;;;;;;;4.19;100.00;97583.53;4994420;28;20475;-79
2020/12/29 01:51:04;;;;;;;4.27;0.33;;;;;;;4.20;100.00;97589.63;5068059;28;20218;-79
2020/12/29 01:53:30;;;;;;;1.20;0.10;;;;;;;4.17;100.00;97585.06;5073293;28;20485;-79
2020/12/29 01:55:55;;;;;;;1.27;0.10;;;;;;;4.14;100.00;97583.94;5064531;28;20207;-78
2020/12/29 01:58:21;;;;;;;1.20;0.10;;;;;;;4.01;100.00;97582.09;5069845;28;20204;-78
2020/12/29 02:00:48;;;;;;;1.23;0.10;;;;;;;4.12;100.00;97577.50;5058303;28;20178;-78
2020/12/29 02:03:16;;;;;;;2.17;0.37;;;;;;;4.06;100.00;97577.16;5056500;28;20550;-79
2020/12/29 02:05:48;;;;;;;1.40;0.20;;;;;;;4.19;100.00;97583.53;5001667;28;21023;-79
2020/12/29 02:08:14;;;;;;;2.00;0.30;;;;;;;4.20;100.00;97584.31;5013000;28;20464;-78
2020/12/29 02:10:41;;;;;;;1.90;0.30;;;;;;;4.06;100.00;97589.69;4996560;28;20482;-79
2020/12/29 02:13:06;;;;;;;1.40;0.30;;;;;;;4.18;100.00;97581.28;5001662;28;20510;-78
2020/12/29 02:15:32;;;;;;;1.37;0.20;;;;;;;4.11;100.00;97584.72;5029641;28;20464;-78
2020/12/29 02:17:57;;;;;;;1.40;0.10;;;;;;;4.19;100.00;97580.88;5065195;28;20228;-79
2020/12/29 02:20:23;;;;;;;1.73;0.57;;;;;;;4.16;100.00;97575.59;5054576;28;20270;-78
2020/12/29 02:22:48;;;;;;;1.30;0.10;;;;;;;4.14;100.00;97567.97;5061582;28;20174;-79
2020/12/29 02:25:14;;;;;;;1.50;0.30;;;;;;;4.20;100.00;97581.66;5026792;28;20212;-79
2020/12/29 02:27:46;;;;;;;1.90;0.30;;;;;;;4.20;100.00;97581.66;4998270;28;20221;-79
2020/12/29 02:30:12;;;;;;;1.20;0.20;;;;;;;4.18;100.00;97579.34;5087910;28;20212;-78
2020/12/29 02:32:38;;;;;;;1.50;0.20;;;;;;;4.17;100.00;97575.19;5049094;28;20495;-78
2020/12/29 02:35:05;;;;;;;1.33;0.13;;;;;;;4.14;100.00;97575.94;5003895;28;20440;-79
2020/12/29 02:37:30;;;;;;;1.30;0.10;;;;;;;4.15;100.00;97579.38;5060792;28;20464;-79
2020/12/29 02:39:56;;;;;;;1.40;0.27;;;;;;;4.07;100.00;97572.56;5064124;28;20960;-79
2020/12/29 02:42:21;;;;;;;1.97;0.23;;;;;;;4.14;100.00;97569.88;4994695;28;20241;-78
2020/12/29 02:44:47;;;;;;;1.47;0.30;;;;;;;4.16;100.00;97573.66;5064160;28;20197;-79
2020/12/29 02:47:13;;;;;;;1.40;0.10;;;;;;;4.20;100.00;97573.66;5079431;28;20198;-79
2020/12/29 02:49:38;;;;;;;1.70;0.20;;;;;;;4.06;100.00;97566.50;5077751;28;20197;-78
2020/12/29 02:52:06;;;;;;;1.33;0.20;;;;;;;4.12;100.00;97575.56;5075482;28;20197;-79
2020/12/29 02:54:32;;;;;;;1.20;0.10;;;;;;;4.20;100.00;97574.41;4993773;28;20197;-78
2020/12/29 02:56:58;;;;;;;2.00;0.40;;;;;;;4.15;100.00;97574.81;5004172;28;20536;-79
2020/12/29 02:59:24;;;;;;;2.10;0.30;;;;;;;4.22;100.00;97579.34;5060618;28;20216;-77
2020/12/29 03:01:50;;;;;;;1.97;0.40;;;;;;;4.14;100.00;97583.19;5011631;28;20208;-77
2020/12/29 03:04:17;;;;;;;1.40;0.20;;;;;;;4.14;100.00;97585.88;5078105;28;20445;-76
2020/12/29 03:06:42;;;;;;;1.20;0.10;;;;;;;4.22;100.00;97585.41;5093130;28;20447;-78
2020/12/29 03:09:08;;;;;;;1.20;0.10;;;;;;;3.98;100.00;97591.63;5023926;28;20494;-79
2020/12/29 03:11:33;;;;;;;1.27;0.13;;;;;;;3.95;100.00;97591.66;5062173;28;20196;-78
2020/12/29 03:14:01;;;;;;;2.03;0.27;;;;;;;4.01;100.00;97603.38;5026366;28;20209;-76
2020/12/29 03:16:27;;;;;;;1.27;0.13;;;;;;;4.04;100.00;97592.75;5067823;28;20196;-76
2020/12/29 03:18:53;;;;;;;2.73;0.30;;;;;;;3.97;100.00;97592.03;5105926;22;20622;-78
2020/12/29 03:21:19;;;;;;;1.20;0.10;;;;;;;3.95;100.00;97602.28;5073062;28;20179;-76
2020/12/29 03:23:45;;;;;;;2.63;0.20;;;;;;;4.02;100.00;97596.94;5052057;28;20441;-78
2020/12/29 03:26:11;;;;;;;1.57;0.30;;;;;;;4.05;100.00;97601.47;5071467;28;20608;-78
2020/12/29 03:28:37;;;;;;;1.20;0.20;;;;;;;3.91;100.00;97598.88;5049936;28;20448;-77
2020/12/29 03:31:04;;;;;;;1.30;0.17;;;;;;;3.98;100.00;97601.50;5064776;28;20884;-78
2020/12/29 03:33:30;;;;;;;1.40;0.10;;;;;;;4.05;100.00;97604.13;5051838;28;20513;-78
2020/12/29 03:35:55;;;;;;;1.40;0.20;;;;;;;4.12;100.00;97604.13;5043297;28;20528;-78
2020/12/29 03:38:21;;;;;;;1.60;0.30;;;;;;;4.03;100.00;97603.75;5057530;28;20249;-79
2020/12/29 03:40:48;;;;;;;1.30;0.20;;;;;;;4.16;100.00;97607.53;5065747;28;20665;-81
2020/12/29 03:43:14;;;;;;;2.10;0.50;;;;;;;4.16;100.00;97610.94;5031961;28;20817;-80
2020/12/29 03:45:40;;;;;;;1.23;0.13;;;;;;;4.12;100.00;97606.78;5056377;28;20436;-79
2020/12/29 03:48:08;;;;;;;1.40;0.20;;;;;;;4.07;100.00;97612.50;5039696;28;20512;-80
2020/12/29 03:50:34;;;;;;;2.37;0.70;;;;;;;4.15;100.00;97609.44;5059965;28;20476;-80
2020/12/29 03:53:00;;;;;;;1.50;0.30;;;;;;;3.99;100.00;97603.03;5061337;28;20512;-80
2020/12/29 03:55:25;;;;;;;1.20;0.13;;;;;;;4.11;100.00;97600.69;5034743;28;20180;-79
2020/12/29 03:57:50;;;;;;;3.50;0.30;;;;;;;4.14;100.00;97597.25;5051932;28;20934;-80
2020/12/29 04:00:16;;;;;;;1.20;0.10;;;;;;;4.08;100.00;97606.03;5062289;28;20728;-80
2020/12/29 04:02:41;;;;;;;1.23;0.13;;;;;;;3.95;100.00;97605.69;5050042;28;20301;-81
2020/12/29 04:05:08;;;;;;;1.30;0.20;;;;;;;4.03;100.00;97611.75;5033576;28;20195;-80
2020/12/29 04:07:33;;;;;;;1.90;0.20;;;;;;;3.94;100.00;97601.53;5052297;28;20226;-80
2020/12/29 04:09:59;;;;;;;1.20;0.10;;;;;;;3.90;100.00;97608.75;5059378;28;20468;-80
2020/12/29 04:12:25;;;;;;;1.67;0.30;;;;;;;3.90;100.00;97605.34;5053265;28;20184;-80
2020/12/29 04:14:50;;;;;;;1.20;0.07;;;;;;;3.98;100.00;97612.91;5064251;28;20198;-80
2020/12/29 04:17:15;;;;;;;1.50;0.20;;;;;;;4.04;100.00;97615.94;5060021;28;20636;-80
2020/12/29 04:19:41;;;;;;;1.50;0.20;;;;;;;4.02;100.00;97618.22;5048103;28;20246;-80
2020/12/29 04:22:06;;;;;;;1.30;0.10;;;;;;;3.96;100.00;97619.78;5062146;28;20236;-80
2020/12/29 04:24:32;;;;;;;1.80;0.40;;;;;;;3.87;100.00;97606.13;5054761;28;20552;-80
2020/12/29 04:27:18;;;;;;;1.20;0.10;;;;;;;3.80;100.00;97600.81;5061839;28;20202;-79
2020/12/29 04:29:43;;;;;;;1.40;0.20;;;;;;;3.98;100.00;97607.59;4989353;28;20228;-80
2020/12/29 04:32:10;;;;;;;1.50;0.20;;;;;;;3.95;100.00;97611.00;4992133;28;20463;-79
2020/12/29 04:34:36;;;;;;;2.10;0.37;;;;;;;3.85;100.00;97617.16;4970598;28;21078;-80
2020/12/29 04:37:01;;;;;;;1.27;0.13;;;;;;;3.86;100.00;97612.56;4992729;28;20612;-80
2020/12/29 04:39:26;;;;;;;1.77;0.30;;;;;;;3.81;100.00;97620.97;4988069;28;20248;-77
2020/12/29 04:42:02;;;;;;;1.50;0.30;;;;;;;3.86;100.00;97612.56;4977128;28;20201;-78
2020/12/29 04:44:28;;;;;;;2.23;0.23;;;;;;;3.91;100.00;97617.50;4958535;28;20189;-77
2020/12/29 04:46:54;;;;;;;1.40;0.30;;;;;;;3.93;100.00;97615.22;4993155;28;20555;-78
2020/12/29 04:49:21;;;;;;;1.50;0.20;;;;;;;3.81;100.00;97615.63;4990576;28;20550;-81
2020/12/29 04:51:48;;;;;;;1.57;0.20;;;;;;;3.81;100.00;97610.31;4990659;28;20469;-80
2020/12/29 04:54:18;;;;;;;1.67;0.37;;;;;;;3.64;100.00;97612.63;4965214;28;20500;-78
2020/12/29 04:56:44;;;;;;;1.83;0.30;;;;;;;3.64;100.00;97614.53;4973539;28;20440;-77
2020/12/29 04:59:09;;;;;;;2.07;0.40;;;;;;;3.80;100.00;97624.75;4993912;28;21026;-78
2020/12/29 05:01:35;;;;;;;1.20;0.10;;;;;;;3.78;100.00;97625.13;4991422;28;20531;-78
2020/12/29 05:04:02;;;;;;;1.77;0.37;;;;;;;3.68;100.00;97621.38;4989054;28;20353;-78
2020/12/29 05:06:27;;;;;;;1.20;0.10;;;;;;;3.77;100.00;97617.56;5024581;28;20435;-77
2020/12/29 05:08:54;;;;;;;1.20;0.10;;;;;;;3.84;100.00;97620.94;5025185;28;20461;-78
2020/12/29 05:11:22;;;;;;;2.20;0.13;;;;;;;3.86;100.00;97617.91;5045379;28;20214;-77
2020/12/29 05:13:49;;;;;;;2.07;0.50;;;;;;;3.92;100.00;97617.13;5045695;28;20433;-77
2020/12/29 05:16:14;;;;;;;1.40;0.20;;;;;;;3.89;100.00;97623.19;5069023;28;20444;-77
2020/12/29 05:18:41;;;;;;;1.80;0.40;;;;;;;3.91;100.00;97618.25;5064012;28;20546;-77
2020/12/29 05:21:07;;;;;;;2.63;0.30;;;;;;;3.93;100.00;97620.56;5000266;28;20193;-77
2020/12/29 05:23:34;;;;;;;2.33;0.80;;;;;;;4.01;100.00;97614.03;5054893;28;20479;-78
2020/12/29 05:26:00;;;;;;;1.50;0.23;;;;;;;3.92;100.00;97608.38;5055365;28;20532;-81
2020/12/29 05:28:47;;;;;;;1.27;0.20;;;;;;;3.91;100.00;97612.94;5045567;28;20487;-80
2020/12/29 05:31:14;;;;;;;2.20;0.33;;;;;;;3.93;100.00;97615.97;5002557;28;20460;-80
2020/12/29 05:33:39;;;;;;;1.90;0.30;;;;;;;3.88;100.00;97621.69;4996678;28;20957;-80
2020/12/29 05:36:05;;;;;;;1.40;0.10;;;;;;;3.90;100.00;97626.63;5001097;28;20496;-81
2020/12/29 05:38:31;;;;;;;1.70;0.40;;;;;;;3.88;100.00;97618.28;4999161;28;20256;-79
2020/12/29 05:40:57;;;;;;;1.60;0.20;;;;;;;3.78;100.00;97624.38;4997506;28;20192;-80
2020/12/29 05:43:32;;;;;;;1.20;0.10;;;;;;;3.87;100.00;97622.09;4980628;28;20444;-80
2020/12/29 05:46:06;;;;;;;1.50;0.20;;;;;;;3.71;100.00;97614.53;4946740;28;22053;-80
2020/12/29 05:48:33;;;;;;;1.20;0.10;;;;;;;3.62;100.00;97622.91;4985768;28;21011;-79
2020/12/29 05:51:12;;;;;;;1.50;0.40;;;;;;;3.61;100.00;97613.41;4998332;28;20526;-80
2020/12/29 05:53:38;;;;;;;1.50;0.30;;;;;;;3.73;100.00;97617.56;4974322;28;20472;-79
2020/12/29 05:56:06;;;;;;;1.20;0.10;;;;;;;3.74;100.00;97624.38;5000226;28;21210;-81
2020/12/29 05:58:32;;;;;;;2.30;0.40;;;;;;;3.77;100.00;97626.31;4995656;28;20468;-80
2020/12/29 06:00:58;;;;;;;2.87;0.90;;;;;;;3.85;100.00;97632.34;4998691;28;20964;-80
2020/12/29 06:03:26;;;;;;;1.20;0.10;;;;;;;3.80;100.00;97627.41;4999580;28;20983;-80
2020/12/29 06:05:54;;;;;;;1.53;0.33;;;;;;;3.68;100.00;97624.03;4998695;28;20454;-81
2020/12/29 06:08:22;;;;;;;1.93;0.27;;;;;;;3.57;100.00;97625.97;5040981;28;20838;-81
2020/12/29 06:11:03;;;;;;;1.20;0.10;;;;;;;3.39;100.00;97629.75;5066279;28;20458;-80
2020/12/29 06:13:36;;;;;;;2.27;0.53;;;;;;;3.46;100.00;97633.19;5029764;28;20452;-80
2020/12/29 06:16:03;;;;;;;1.50;0.20;;;;;;;3.38;100.00;97634.34;5060660;28;20446;-80
2020/12/29 06:18:33;;;;;;;1.57;0.10;;;;;;;3.40;100.00;97636.63;5071221;28;20437;-81
2020/12/29 06:21:03;;;;;;;1.40;0.20;;;;;;;3.59;100.00;97634.31;5039032;28;20438;-80
2020/12/29 06:23:35;;;;;;;1.60;0.30;;;;;;;3.56;100.00;97639.66;5050861;28;20445;-80
2020/12/29 06:26:03;;;;;;;1.37;0.20;;;;;;;3.43;100.00;97635.84;5045058;28;20447;-80
2020/12/29 06:28:36;;;;;;;3.40;0.40;;;;;;;3.54;100.00;97647.97;5062314;28;20451;-80
2020/12/29 06:31:05;;;;;;;1.40;0.23;;;;;;;3.53;100.00;97643.81;5070125;28;20461;-80
2020/12/29 06:33:31;;;;;;;1.93;0.23;;;;;;;3.61;100.00;97641.91;5062013;28;20441;-80
2020/12/29 06:35:58;;;;;;;1.20;0.10;;;;;;;3.59;100.00;97647.63;5061767;28;20464;-80
2020/12/29 06:38:29;;;;;;;1.70;0.30;;;;;;;3.39;100.00;97651.03;5052166;28;20464;-80
2020/12/29 06:40:55;;;;;;;1.80;0.37;;;;;;;3.52;100.00;97654.84;5077429;28;20482;-80
2020/12/29 06:43:21;;;;;;;1.40;0.20;;;;;;;3.48;100.00;97654.81;5053863;28;20457;-80
2020/12/29 06:45:46;;;;;;;1.57;0.30;;;;;;;3.50;100.00;97652.53;5078885;28;20421;-80
2020/12/29 06:48:20;;;;;;;1.70;0.27;;;;;;;3.56;100.00;97656.34;5057551;28;20198;-80
2020/12/29 06:50:46;;;;;;;1.60;0.43;;;;;;;3.51;100.00;97648.75;5062109;28;20198;-80
2020/12/29 06:53:17;;;;;;;1.27;0.10;;;;;;;3.52;100.00;97652.19;5069256;28;20483;-80
2020/12/29 06:55:48;;;;;;;2.33;0.47;;;;;;;3.52;100.00;97654.84;5059496;28;20477;-80
2020/12/29 06:58:30;;;;;;;1.67;0.40;;;;;;;3.44;100.00;97667.41;5059765;28;20501;-80
2020/12/29 07:01:20;;;;;;;1.40;0.20;;;;;;;3.49;100.00;97669.66;5054526;28;20453;-80
2020/12/29 07:03:46;;;;;;;1.90;0.30;;;;;;;3.60;100.00;97672.31;5032110;28;20527;-78
2020/12/29 07:06:12;;;;;;;1.53;0.23;;;;;;;3.50;100.00;97681.06;5053430;28;20834;-77
2020/12/29 07:08:38;;;;;;;1.80;0.60;;;;;;;3.42;100.00;97682.19;5069952;28;20491;-78
2020/12/29 07:11:19;;;;;;;1.40;0.20;;;;;;;3.50;100.00;97683.72;5070311;28;20556;-78
2020/12/29 07:13:51;;;;;;;1.87;0.53;;;;;;;3.72;100.00;97692.44;5034128;28;20191;-78
2020/12/29 07:16:24;;;;;;;2.13;0.57;;;;;;;3.64;100.00;97689.78;5052984;28;21043;-78
2020/12/29 07:18:51;;;;;;;2.37;0.50;;;;;;;3.58;100.00;97691.31;5061404;28;20468;-78
2020/12/29 07:21:28;;;;;;;2.30;0.50;;;;;;;3.70;100.00;97702.72;5066886;28;20936;-78
2020/12/29 07:23:55;;;;;;;2.13;0.40;;;;;;;3.55;100.00;97692.06;5050412;28;20539;-78
2020/12/29 07:26:23;;;;;;;1.97;0.20;;;;;;;3.49;100.00;97709.56;5043217;28;20450;-77
2020/12/29 07:28:56;;;;;;;1.20;0.10;;;;;;;3.40;100.00;97705.75;5046999;28;20458;-80
2020/12/29 07:31:22;;;;;;;2.13;0.40;;;;;;;3.45;100.00;97714.09;5078914;28;20516;-80
2020/12/29 07:33:55;;;;;;;1.40;0.20;;;;;;;3.39;100.00;97726.25;5040909;28;20441;-80
2020/12/29 07:36:21;;;;;;;2.33;0.90;;;;;;;3.45;100.00;97729.28;5059468;28;20454;-80
2020/12/29 07:38:49;;;;;;;2.23;0.57;;;;;;;3.55;100.00;97731.19;5058237;28;20454;-83
2020/12/29 07:41:19;;;;;;;1.50;0.20;;;;;;;3.59;100.00;97738.06;5051533;28;20445;-83
2020/12/29 07:43:46;;;;;;;2.17;0.43;;;;;;;3.72;100.00;97738.41;5053033;28;20873;-83
2020/12/29 07:46:13;;;;;;;2.50;0.40;;;;;;;3.60;100.00;97747.53;5046073;28;20445;-83
2020/12/29 07:48:40;;;;;;;1.50;0.10;;;;;;;3.54;100.00;97746.41;5038675;28;20465;-81
2020/12/29 07:51:07;;;;;;;1.57;0.20;;;;;;;3.48;100.00;97750.56;5042102;28;20466;-83
2020/12/29 07:53:32;;;;;;;2.13;0.47;;;;;;;3.59;100.00;97756.69;5053547;28;20482;-81
2020/12/29 07:55:59;;;;;;;1.23;0.07;;;;;;;3.49;100.00;97764.63;5053412;28;20437;-80
2020/12/29 07:58:24;;;;;;;2.10;0.50;;;;;;;3.63;100.00;97783.28;5037058;28;20494;-81
2020/12/29 08:00:50;;;;;;;1.80;0.67;;;;;;;3.65;100.00;97773.78;5043048;28;20465;-80
2020/12/29 08:03:18;;;;;;;1.93;0.30;;;;;;;3.60;100.00;97781.38;5062513;28;20447;-82
2020/12/29 08:05:45;;;;;;;1.20;0.10;;;;;;;3.60;100.00;97784.78;5043921;28;20442;-82
2020/12/29 08:08:12;;;;;;;1.43;0.30;;;;;;;3.49;100.00;97777.94;5032536;28;20575;-82
2020/12/29 08:10:43;;;;;;;1.40;0.30;;;;;;;3.57;100.00;97782.13;5048379;28;21000;-83
2020/12/29 08:13:10;;;;;;;2.40;0.60;;;;;;;3.59;100.00;97787.81;5029599;28;21122;-84
2020/12/29 08:15:41;;;;;;;2.37;0.47;;;;;;;3.54;100.00;97788.94;5052138;28;20814;-84
2020/12/29 08:18:11;;;;;;;1.83;0.40;;;;;;;3.54;100.00;97791.63;5053310;28;21252;-84
2020/12/29 08:20:57;;;;;;;1.73;0.33;;;;;;;3.59;100.00;97796.56;5034990;28;20856;-83
2020/12/29 08:23:25;;;;;;;2.13;0.57;;;;;;;3.64;100.00;97809.50;5032119;28;20488;-83
2020/12/29 08:25:52;;;;;;;2.70;0.60;;;;;;;3.70;100.00;97811.78;5033373;28;20426;-83
2020/12/29 08:28:19;;;;;;;1.60;0.30;;;;;;;3.75;100.00;97809.50;5033225;28;20472;-82
2020/12/29 08:30:45;;;;;;;2.47;0.70;;;;;;;3.87;100.00;97817.09;5052250;28;20472;-83
2020/12/29 08:33:14;;;;;;;2.27;0.40;;;;;;;3.91;100.00;97814.47;5051782;28;20442;-85
2020/12/29 08:35:45;;;;;;;1.50;0.30;;;;;;;3.95;100.00;97823.94;5039964;28;20225;-83
2020/12/29 08:38:44;;;;;;;1.57;0.30;;;;;;;4.00;100.00;97815.59;5016866;28;20467;-83
2020/12/29 08:41:13;;;;;;;2.60;0.70;;;;;;;4.07;100.00;97815.56;4994691;28;20514;-83
2020/12/29 08:43:45;;;;;;;1.60;0.40;;;;;;;3.99;100.00;97821.31;5010835;28;20962;-83
2020/12/29 08:46:13;;;;;;;1.60;0.37;;;;;;;3.99;100.00;97821.31;4994834;28;20440;-83
2020/12/29 08:48:41;;;;;;;2.67;0.50;;;;;;;3.76;100.00;97829.63;4979324;28;20566;-83
2020/12/29 08:51:21;;;;;;;2.53;0.53;;;;;;;3.90;100.00;97829.66;4966462;28;20655;-83
2020/12/29 08:53:46;;;;;;;1.80;0.33;;;;;;;3.85;100.00;97837.25;5008911;28;20542;-83
2020/12/29 08:56:25;;;;;;;1.73;0.40;;;;;;;3.85;100.00;97839.91;4979773;28;20521;-83
2020/12/29 08:58:51;;;;;;;1.30;0.20;;;;;;;3.99;100.00;97832.69;5000398;28;20215;-83
2020/12/29 09:01:36;;;;;;;1.30;0.10;;;;;;;3.95;100.00;97842.56;4989690;28;20488;-82
2020/12/29 09:04:20;;;;;;;1.30;0.10;;;;;;;4.04;100.00;97839.53;5003396;28;20439;-82
2020/12/29 09:07:08;;;;;;;1.40;0.07;;;;;;;4.04;100.00;97842.97;5000840;28;20535;-82
2020/12/29 09:09:52;;;;;;;1.20;0.10;;;;;;;4.03;100.00;97849.41;5016291;28;20904;-83
2020/12/29 09:12:22;;;;;;;1.80;0.60;;;;;;;3.95;100.00;97855.16;5008187;28;20451;-83
2020/12/29 09:15:00;;;;;;;1.50;0.20;;;;;;;4.13;100.00;97867.31;4997009;28;20443;-83
2020/12/29 09:17:28;;;;;;;1.50;0.20;;;;;;;4.17;100.00;97873.41;5015877;28;20960;-81
2020/12/29 09:20:19;;;;;;;1.83;0.43;;;;;;;4.21;100.00;97873.38;5037465;28;20457;-82
2020/12/29 09:23:24;;;;;;;1.43;0.33;;;;;;;4.13;100.00;97877.94;5035645;28;20434;-82
2020/12/29 09:25:49;;;;;;;2.03;0.40;;;;;;;3.94;100.00;97881.00;4974706;28;20962;-81
2020/12/29 09:28:26;;;;;;;1.97;0.20;;;;;;;3.97;100.00;97888.22;4983603;28;20443;-82
2020/12/29 09:31:10;;;;;;;2.23;0.77;;;;;;;4.04;100.00;97892.78;4980555;28;20506;-81
2020/12/29 09:33:38;;;;;;;1.50;0.57;;;;;;;4.13;100.00;97898.50;4992162;28;21110;-82
2020/12/29 09:36:04;;;;;;;1.47;0.27;;;;;;;4.11;100.00;97903.44;4981313;28;20449;-81
2020/12/29 09:38:31;;;;;;;1.43;0.20;;;;;;;4.11;100.00;97903.44;4979923;28;20463;-82
2020/12/29 09:41:00;;;;;;;1.67;0.37;;;;;;;4.24;100.00;97909.91;4998112;28;20886;-81
2020/12/29 09:43:26;;;;;;;1.30;0.20;;;;;;;4.14;100.00;97910.69;4989142;28;20440;-81
2020/12/29 09:45:52;;;;;;;2.50;0.43;;;;;;;4.14;100.00;97914.06;4976677;28;20448;-81
2020/12/29 09:48:18;;;;;;;2.73;0.40;;;;;;;4.15;100.00;97915.63;4977735;28;20480;-82
2020/12/29 09:51:03;;;;;;;2.30;0.57;;;;;;;4.24;100.00;97912.59;4996503;28;20279;-81
2020/12/29 09:53:29;;;;;;;1.83;0.40;;;;;;;4.24;100.00;97913.31;4915833;29;20216;-82
2020/12/29 09:55:55;;;;;;;2.80;0.33;;;;;;;4.32;100.00;97916.75;4930687;28;20576;-82
2020/12/29 09:58:21;;;;;;;3.97;0.47;;;;;;;4.23;100.00;97917.13;4966670;28;20202;-82
2020/12/29 10:00:47;;;;;;;1.67;0.57;;;;;;;4.14;100.00;97924.00;4971673;28;20478;-82
2020/12/29 10:03:13;;;;;;;2.33;0.53;;;;;;;4.23;100.00;97916.38;4994143;28;20205;-82
2020/12/29 10:05:39;;;;;;;2.13;0.40;;;;;;;4.38;100.00;97923.22;4966381;28;20433;-82
2020/12/29 10:08:04;;;;;;;2.07;0.30;;;;;;;4.17;100.00;97926.66;4985096;28;20508;-82
2020/12/29 10:10:30;;;;;;;1.90;0.33;;;;;;;4.36;100.00;97930.81;4953968;28;20221;-82
2020/12/29 10:12:56;;;;;;;1.97;0.40;;;;;;;4.52;100.00;97928.56;4982343;28;20301;-82
2020/12/29 10:15:21;;;;;;;2.10;0.77;;;;;;;4.41;100.00;97930.47;4983332;28;20277;-81
2020/12/29 10:17:47;;;;;;;1.67;0.20;;;;;;;4.48;100.00;97930.44;4980223;28;20445;-82
2020/12/29 10:20:14;;;;;;;1.47;0.30;;;;;;;4.12;100.00;97935.00;4954312;28;20216;-81
2020/12/29 10:22:39;;;;;;;1.20;0.10;;;;;;;4.14;100.00;97924.00;4989823;28;20653;-80
2020/12/29 10:25:05;;;;;;;1.70;0.37;;;;;;;4.26;100.00;97923.59;4965528;28;20421;-81
2020/12/29 10:27:31;;;;;;;1.20;0.13;;;;;;;4.13;100.00;97917.88;4971859;28;20191;-81
2020/12/29 10:29:56;;;;;;;2.07;0.30;;;;;;;4.23;100.00;97911.81;5019429;28;20469;-80
2020/12/29 10:32:22;;;;;;;2.43;0.77;;;;;;;4.19;100.00;97912.94;5063314;28;20191;-81
2020/12/29 10:34:48;;;;;;;1.60;0.37;;;;;;;4.46;100.00;97914.09;5058331;28;20166;-82
2020/12/29 10:37:14;;;;;;;2.13;0.57;;;;;;;4.58;100.00;97917.13;5050697;28;20180;-81
2020/12/29 10:39:40;;;;;;;3.57;0.53;;;;;;;4.73;100.00;97907.22;5065403;28;20459;-81
2020/12/29 10:42:05;;;;;;;1.30;0.20;;;;;;;4.56;100.00;97921.31;5066992;28;20425;-81
2020/12/29 10:44:31;;;;;;;1.70;0.30;;;;;;;4.52;100.00;97923.22;5057422;28;20213;-81
2020/12/29 10:46:57;;;;;;;1.57;0.37;;;;;;;4.39;100.00;97925.50;5077620;28;20182;-81
2020/12/29 10:49:22;;;;;;;1.40;0.47;;;;;;;4.66;100.00;97928.53;5060205;28;20553;-82
2020/12/29 10:51:49;;;;;;;2.00;0.57;;;;;;;4.73;100.00;97917.88;5056748;28;20254;-81
2020/12/29 10:54:14;;;;;;;2.20;0.77;;;;;;;4.77;100.00;97923.94;5078963;28;20186;-80
2020/12/29 10:56:40;;;;;;;2.20;0.40;;;;;;;4.92;100.00;97928.09;5044511;28;20449;-81
2020/12/29 10:59:05;;;;;;;2.10;0.20;;;;;;;5.04;100.00;97934.94;5057342;28;20669;-81
2020/12/29 11:01:31;;;;;;;1.53;0.30;;;;;;;5.01;100.00;97938.38;5071784;28;20180;-81
2020/12/29 11:03:56;;;;;;;3.13;0.53;;;;;;;5.10;100.00;97939.50;5052078;28;20183;-81
2020/12/29 11:06:22;;;;;;;1.83;0.50;;;;;;;5.11;100.00;97941.00;5064900;28;20576;-82
2020/12/29 11:08:50;;;;;;;1.20;0.10;;;;;;;5.14;100.00;97948.25;5046182;28;20213;-82
2020/12/29 11:11:16;;;;;;;2.00;0.37;;;;;;;5.38;100.00;97946.66;5044323;28;20472;-81
2020/12/29 11:13:42;;;;;;;1.67;0.23;;;;;;;5.12;100.00;97952.44;5063751;28;20839;-82
2020/12/29 11:16:16;;;;;;;1.70;0.33;;;;;;;5.16;100.00;97945.19;5045120;28;20494;-80
2020/12/29 11:18:43;;;;;;;1.30;0.20;;;;;;;4.99;100.00;97949.44;5059577;28;20507;-82
2020/12/29 11:21:08;;;;;;;1.20;0.10;;;;;;;4.84;100.00;97950.59;5054017;28;20466;-81
2020/12/29 11:23:34;;;;;;;2.00;0.60;;;;;;;4.97;100.00;97954.41;5072870;28;20858;-80
2020/12/29 11:25:59;;;;;;;1.53;0.20;;;;;;;4.84;100.00;97949.84;5060828;28;20219;-79
2020/12/29 11:28:25;;;;;;;1.83;0.30;;;;;;;4.84;100.00;97945.25;5071635;28;20238;-81
2020/12/29 11:30:50;;;;;;;1.30;0.20;;;;;;;4.84;100.00;97945.25;5039317;28;20214;-80
2020/12/29 11:33:16;;;;;;;2.57;0.73;;;;;;;4.88;100.00;97945.28;5068039;28;20195;-81
2020/12/29 11:35:47;;;;;;;1.70;0.27;;;;;;;4.90;100.00;97954.38;5054922;28;20187;-80
2020/12/29 11:38:22;;;;;;;1.53;0.10;;;;;;;4.91;100.00;97949.81;5057950;28;20187;-81